sensor_id;sensor_type;location;lat;lon;timestamp;P1;durP1;ratioP1;P2;durP2;ratioP2
3249;SDS011;1637;42.020;23.992;2023-06-22T00:00:45;16.30;;;11.93;;
3249;SDS011;1637;42.020;23.992;2023-06-22T00:03:13;15.20;;;11.47;;
3249;SDS011;1637;42.020;23.992;2023-06-22T00:05:40;12.97;;;11.57;;
3249;SDS011;1637;42.020;23.992;2023-06-22T00:08:07;13.67;;;11.60;;
3249;SDS011;1637;42.020;23.992;2023-06-22T00:10:34;14.57;;;11.97;;
3249;SDS011;1637;42.020;23.992;2023-06-22T00:13:01;17.40;;;12.47;;
3249;SDS011;1637;42.020;23.992;2023-06-22T00:15:28;16.40;;;10.73;;
3249;SDS011;1637;42.020;23.992;2023-06-22T00:17:55;16.33;;;11.80;;
3249;SDS011;1637;42.020;23.992;2023-06-22T00:20:23;12.70;;;11.00;;
3249;SDS011;1637;42.020;23.992;2023-06-22T00:22:52;15.93;;;11.07;;
3249;SDS011;1637;42.020;23.992;2023-06-22T00:25:20;12.60;;;11.30;;
3249;SDS011;1637;42.020;23.992;2023-06-22T00:27:47;16.07;;;12.17;;
3249;SDS011;1637;42.020;23.992;2023-06-22T00:30:14;13.13;;;11.30;;
3249;SDS011;1637;42.020;23.992;2023-06-22T00:32:42;17.07;;;11.97;;
3249;SDS011;1637;42.020;23.992;2023-06-22T00:35:09;13.30;;;11.83;;
3249;SDS011;1637;42.020;23.992;2023-06-22T00:37:37;16.57;;;12.83;;
3249;SDS011;1637;42.020;23.992;2023-06-22T00:40:07;14.03;;;12.23;;
3249;SDS011;1637;42.020;23.992;2023-06-22T00:42:36;16.37;;;11.73;;
3249;SDS011;1637;42.020;23.992;2023-06-22T00:45:03;16.30;;;13.47;;
3249;SDS011;1637;42.020;23.992;2023-06-22T00:47:31;13.73;;;12.17;;
3249;SDS011;1637;42.020;23.992;2023-06-22T00:49:58;13.70;;;12.13;;
3249;SDS011;1637;42.020;23.992;2023-06-22T00:52:25;12.73;;;11.23;;
3249;SDS011;1637;42.020;23.992;2023-06-22T00:54:56;22.10;;;12.27;;
3249;SDS011;1637;42.020;23.992;2023-06-22T00:57:24;15.07;;;11.67;;
3249;SDS011;1637;42.020;23.992;2023-06-22T00:59:53;13.90;;;12.10;;
3249;SDS011;1637;42.020;23.992;2023-06-22T01:02:20;13.30;;;11.63;;
3249;SDS011;1637;42.020;23.992;2023-06-22T01:04:47;13.43;;;11.57;;
3249;SDS011;1637;42.020;23.992;2023-06-22T01:07:16;14.53;;;12.47;;
3249;SDS011;1637;42.020;23.992;2023-06-22T01:09:50;13.80;;;11.00;;
3249;SDS011;1637;42.020;23.992;2023-06-22T01:12:24;13.70;;;11.33;;
3249;SDS011;1637;42.020;23.992;2023-06-22T01:14:55;15.10;;;10.87;;
3249;SDS011;1637;42.020;23.992;2023-06-22T01:17:28;16.50;;;11.57;;
3249;SDS011;1637;42.020;23.992;2023-06-22T01:19:55;12.43;;;11.10;;
3249;SDS011;1637;42.020;23.992;2023-06-22T01:22:26;15.20;;;11.57;;
3249;SDS011;1637;42.020;23.992;2023-06-22T01:24:59;13.20;;;11.20;;
3249;SDS011;1637;42.020;23.992;2023-06-22T01:27:39;13.50;;;11.30;;
3249;SDS011;1637;42.020;23.992;2023-06-22T01:30:15;15.60;;;12.60;;
3249;SDS011;1637;42.020;23.992;2023-06-22T01:32:45;13.20;;;10.87;;
3249;SDS011;1637;42.020;23.992;2023-06-22T01:35:14;13.70;;;11.97;;
3249;SDS011;1637;42.020;23.992;2023-06-22T01:37:43;17.53;;;13.67;;
3249;SDS011;1637;42.020;23.992;2023-06-22T01:40:11;16.07;;;12.97;;
3249;SDS011;1637;42.020;23.992;2023-06-22T01:42:39;18.30;;;12.27;;
3249;SDS011;1637;42.020;23.992;2023-06-22T01:45:06;17.13;;;13.43;;
3249;SDS011;1637;42.020;23.992;2023-06-22T01:47:35;16.43;;;13.30;;
3249;SDS011;1637;42.020;23.992;2023-06-22T01:50:03;23.30;;;16.07;;
3249;SDS011;1637;42.020;23.992;2023-06-22T01:52:31;15.23;;;13.63;;
3249;SDS011;1637;42.020;23.992;2023-06-22T01:54:59;14.60;;;12.00;;
3249;SDS011;1637;42.020;23.992;2023-06-22T01:57:26;13.50;;;11.60;;
3249;SDS011;1637;42.020;23.992;2023-06-22T01:59:56;12.97;;;11.13;;
3249;SDS011;1637;42.020;23.992;2023-06-22T02:02:27;14.43;;;12.40;;
3249;SDS011;1637;42.020;23.992;2023-06-22T02:05:01;18.73;;;13.47;;
3249;SDS011;1637;42.020;23.992;2023-06-22T02:07:32;21.00;;;13.67;;
3249;SDS011;1637;42.020;23.992;2023-06-22T02:10:02;17.83;;;13.80;;
3249;SDS011;1637;42.020;23.992;2023-06-22T02:12:33;19.77;;;13.40;;
3249;SDS011;1637;42.020;23.992;2023-06-22T02:15:02;19.03;;;12.73;;
3249;SDS011;1637;42.020;23.992;2023-06-22T02:17:30;16.27;;;12.97;;
3249;SDS011;1637;42.020;23.992;2023-06-22T02:20:02;28.43;;;15.43;;
3249;SDS011;1637;42.020;23.992;2023-06-22T02:22:31;16.37;;;12.13;;
3249;SDS011;1637;42.020;23.992;2023-06-22T02:24:57;15.03;;;12.30;;
3249;SDS011;1637;42.020;23.992;2023-06-22T02:27:24;16.80;;;12.47;;
3249;SDS011;1637;42.020;23.992;2023-06-22T02:29:51;14.40;;;11.80;;
3249;SDS011;1637;42.020;23.992;2023-06-22T02:32:18;14.93;;;12.70;;
3249;SDS011;1637;42.020;23.992;2023-06-22T02:34:45;16.83;;;11.20;;
3249;SDS011;1637;42.020;23.992;2023-06-22T02:37:14;14.60;;;11.90;;
3249;SDS011;1637;42.020;23.992;2023-06-22T02:39:41;16.03;;;11.87;;
3249;SDS011;1637;42.020;23.992;2023-06-22T02:42:08;15.13;;;12.27;;
3249;SDS011;1637;42.020;23.992;2023-06-22T02:44:36;16.67;;;12.33;;
3249;SDS011;1637;42.020;23.992;2023-06-22T02:47:03;32.10;;;18.27;;
3249;SDS011;1637;42.020;23.992;2023-06-22T02:49:30;17.63;;;12.57;;
3249;SDS011;1637;42.020;23.992;2023-06-22T02:51:57;17.50;;;12.10;;
3249;SDS011;1637;42.020;23.992;2023-06-22T02:54:25;17.67;;;11.27;;
3249;SDS011;1637;42.020;23.992;2023-06-22T02:56:52;13.90;;;10.80;;
3249;SDS011;1637;42.020;23.992;2023-06-22T02:59:19;15.83;;;10.77;;
3249;SDS011;1637;42.020;23.992;2023-06-22T03:01:48;13.23;;;11.33;;
3249;SDS011;1637;42.020;23.992;2023-06-22T03:04:15;25.43;;;17.30;;
3249;SDS011;1637;42.020;23.992;2023-06-22T03:06:42;54.67;;;37.93;;
3249;SDS011;1637;42.020;23.992;2023-06-22T03:09:09;27.40;;;19.03;;
3249;SDS011;1637;42.020;23.992;2023-06-22T03:11:37;25.47;;;18.97;;
3249;SDS011;1637;42.020;23.992;2023-06-22T03:14:04;19.17;;;12.20;;
3249;SDS011;1637;42.020;23.992;2023-06-22T03:16:31;20.80;;;11.53;;
3249;SDS011;1637;42.020;23.992;2023-06-22T03:18:58;14.50;;;11.97;;
3249;SDS011;1637;42.020;23.992;2023-06-22T03:21:26;16.13;;;11.27;;
3249;SDS011;1637;42.020;23.992;2023-06-22T03:23:54;16.73;;;10.63;;
3249;SDS011;1637;42.020;23.992;2023-06-22T03:26:21;15.90;;;12.43;;
3249;SDS011;1637;42.020;23.992;2023-06-22T03:28:49;16.60;;;13.53;;
3249;SDS011;1637;42.020;23.992;2023-06-22T03:31:16;17.77;;;11.77;;
3249;SDS011;1637;42.020;23.992;2023-06-22T03:33:46;28.37;;;17.33;;
3249;SDS011;1637;42.020;23.992;2023-06-22T03:36:13;20.83;;;12.13;;
3249;SDS011;1637;42.020;23.992;2023-06-22T03:38:41;17.50;;;12.40;;
3249;SDS011;1637;42.020;23.992;2023-06-22T03:41:08;14.27;;;11.30;;
3249;SDS011;1637;42.020;23.992;2023-06-22T03:43:35;14.67;;;10.73;;
3249;SDS011;1637;42.020;23.992;2023-06-22T03:46:03;14.93;;;10.87;;
3249;SDS011;1637;42.020;23.992;2023-06-22T03:48:30;11.73;;;10.27;;
3249;SDS011;1637;42.020;23.992;2023-06-22T03:50:58;15.87;;;10.37;;
3249;SDS011;1637;42.020;23.992;2023-06-22T03:53:25;15.30;;;9.30;;
3249;SDS011;1637;42.020;23.992;2023-06-22T03:55:52;19.23;;;10.97;;
3249;SDS011;1637;42.020;23.992;2023-06-22T03:58:19;9.70;;;8.77;;
3249;SDS011;1637;42.020;23.992;2023-06-22T04:00:47;26.47;;;21.00;;
3249;SDS011;1637;42.020;23.992;2023-06-22T04:03:16;22.43;;;20.00;;
3249;SDS011;1637;42.020;23.992;2023-06-22T04:05:43;36.30;;;17.20;;
3249;SDS011;1637;42.020;23.992;2023-06-22T04:08:11;29.63;;;23.57;;
3249;SDS011;1637;42.020;23.992;2023-06-22T04:10:38;27.03;;;18.13;;
3249;SDS011;1637;42.020;23.992;2023-06-22T04:13:06;22.80;;;18.47;;
3249;SDS011;1637;42.020;23.992;2023-06-22T04:15:33;20.83;;;17.40;;
3249;SDS011;1637;42.020;23.992;2023-06-22T04:18:00;25.80;;;19.37;;
3249;SDS011;1637;42.020;23.992;2023-06-22T04:20:28;30.13;;;22.73;;
3249;SDS011;1637;42.020;23.992;2023-06-22T04:22:56;25.83;;;20.23;;
3249;SDS011;1637;42.020;23.992;2023-06-22T04:25:23;24.27;;;19.40;;
3249;SDS011;1637;42.020;23.992;2023-06-22T04:27:50;27.40;;;19.00;;
3249;SDS011;1637;42.020;23.992;2023-06-22T04:30:17;31.50;;;22.90;;
3249;SDS011;1637;42.020;23.992;2023-06-22T04:32:44;26.87;;;20.20;;
3249;SDS011;1637;42.020;23.992;2023-06-22T04:35:11;21.00;;;18.80;;
3249;SDS011;1637;42.020;23.992;2023-06-22T04:37:42;19.90;;;16.03;;
3249;SDS011;1637;42.020;23.992;2023-06-22T04:40:11;17.97;;;13.87;;
3249;SDS011;1637;42.020;23.992;2023-06-22T04:42:40;22.50;;;16.10;;
3249;SDS011;1637;42.020;23.992;2023-06-22T04:45:18;23.40;;;14.10;;
3249;SDS011;1637;42.020;23.992;2023-06-22T04:47:45;27.77;;;17.90;;
3249;SDS011;1637;42.020;23.992;2023-06-22T04:50:12;92.43;;;32.17;;
3249;SDS011;1637;42.020;23.992;2023-06-22T04:52:39;74.00;;;31.57;;
3249;SDS011;1637;42.020;23.992;2023-06-22T04:55:07;18.03;;;11.43;;
3249;SDS011;1637;42.020;23.992;2023-06-22T04:57:34;17.93;;;11.73;;
3249;SDS011;1637;42.020;23.992;2023-06-22T05:00:05;19.50;;;13.27;;
3249;SDS011;1637;42.020;23.992;2023-06-22T05:02:37;22.40;;;12.70;;
3249;SDS011;1637;42.020;23.992;2023-06-22T05:05:06;20.13;;;13.57;;
3249;SDS011;1637;42.020;23.992;2023-06-22T05:07:34;23.43;;;14.10;;
3249;SDS011;1637;42.020;23.992;2023-06-22T05:10:01;20.93;;;12.27;;
3249;SDS011;1637;42.020;23.992;2023-06-22T05:12:29;35.83;;;24.23;;
3249;SDS011;1637;42.020;23.992;2023-06-22T05:14:56;13.67;;;12.27;;
3249;SDS011;1637;42.020;23.992;2023-06-22T05:17:24;15.20;;;11.70;;
3249;SDS011;1637;42.020;23.992;2023-06-22T05:19:51;16.70;;;12.13;;
3249;SDS011;1637;42.020;23.992;2023-06-22T05:22:18;14.83;;;12.20;;
3249;SDS011;1637;42.020;23.992;2023-06-22T05:24:45;26.97;;;13.13;;
3249;SDS011;1637;42.020;23.992;2023-06-22T05:27:12;16.43;;;12.20;;
3249;SDS011;1637;42.020;23.992;2023-06-22T05:29:40;15.87;;;13.53;;
3249;SDS011;1637;42.020;23.992;2023-06-22T05:32:08;13.60;;;11.50;;
3249;SDS011;1637;42.020;23.992;2023-06-22T05:34:35;15.87;;;12.70;;
3249;SDS011;1637;42.020;23.992;2023-06-22T05:37:02;18.73;;;13.67;;
3249;SDS011;1637;42.020;23.992;2023-06-22T05:39:29;13.63;;;12.27;;
3249;SDS011;1637;42.020;23.992;2023-06-22T05:41:56;15.93;;;12.40;;
3249;SDS011;1637;42.020;23.992;2023-06-22T05:44:22;13.90;;;11.60;;
3249;SDS011;1637;42.020;23.992;2023-06-22T05:46:51;17.23;;;12.10;;
3249;SDS011;1637;42.020;23.992;2023-06-22T05:49:17;13.40;;;12.00;;
3249;SDS011;1637;42.020;23.992;2023-06-22T05:51:47;12.80;;;11.30;;
3249;SDS011;1637;42.020;23.992;2023-06-22T05:54:13;13.10;;;11.37;;
3249;SDS011;1637;42.020;23.992;2023-06-22T05:56:43;12.20;;;10.80;;
3249;SDS011;1637;42.020;23.992;2023-06-22T05:59:09;12.10;;;10.80;;
3249;SDS011;1637;42.020;23.992;2023-06-22T06:01:37;13.10;;;11.80;;
3249;SDS011;1637;42.020;23.992;2023-06-22T06:04:06;13.03;;;9.67;;
3249;SDS011;1637;42.020;23.992;2023-06-22T06:06:34;25.07;;;13.07;;
3249;SDS011;1637;42.020;23.992;2023-06-22T06:09:02;34.13;;;13.80;;
3249;SDS011;1637;42.020;23.992;2023-06-22T06:11:29;23.60;;;11.57;;
3249;SDS011;1637;42.020;23.992;2023-06-22T06:13:56;14.57;;;11.07;;
3249;SDS011;1637;42.020;23.992;2023-06-22T06:16:23;15.07;;;11.60;;
3249;SDS011;1637;42.020;23.992;2023-06-22T06:18:50;22.70;;;14.30;;
3249;SDS011;1637;42.020;23.992;2023-06-22T06:21:20;24.53;;;14.40;;
3249;SDS011;1637;42.020;23.992;2023-06-22T06:23:46;14.93;;;10.50;;
3249;SDS011;1637;42.020;23.992;2023-06-22T06:26:13;27.50;;;12.20;;
3249;SDS011;1637;42.020;23.992;2023-06-22T06:28:41;25.83;;;12.87;;
3249;SDS011;1637;42.020;23.992;2023-06-22T06:31:08;15.10;;;9.70;;
3249;SDS011;1637;42.020;23.992;2023-06-22T06:33:37;20.50;;;12.00;;
3249;SDS011;1637;42.020;23.992;2023-06-22T06:36:04;15.93;;;10.30;;
3249;SDS011;1637;42.020;23.992;2023-06-22T06:38:34;11.17;;;9.00;;
3249;SDS011;1637;42.020;23.992;2023-06-22T06:41:01;11.87;;;9.53;;
3249;SDS011;1637;42.020;23.992;2023-06-22T06:43:28;25.50;;;9.43;;
3249;SDS011;1637;42.020;23.992;2023-06-22T06:45:55;12.60;;;9.27;;
3249;SDS011;1637;42.020;23.992;2023-06-22T06:48:21;9.53;;;8.57;;
3249;SDS011;1637;42.020;23.992;2023-06-22T06:50:48;12.43;;;8.87;;
3249;SDS011;1637;42.020;23.992;2023-06-22T06:53:15;29.57;;;10.30;;
3249;SDS011;1637;42.020;23.992;2023-06-22T06:55:43;10.90;;;9.80;;
3249;SDS011;1637;42.020;23.992;2023-06-22T06:58:11;8.47;;;7.57;;
3249;SDS011;1637;42.020;23.992;2023-06-22T07:00:38;11.77;;;8.40;;
3249;SDS011;1637;42.020;23.992;2023-06-22T07:03:05;9.57;;;8.40;;
3249;SDS011;1637;42.020;23.992;2023-06-22T07:05:33;12.17;;;8.67;;
3249;SDS011;1637;42.020;23.992;2023-06-22T07:08:00;11.70;;;8.60;;
3249;SDS011;1637;42.020;23.992;2023-06-22T07:10:27;10.33;;;8.20;;
3249;SDS011;1637;42.020;23.992;2023-06-22T07:12:56;9.70;;;8.80;;
3249;SDS011;1637;42.020;23.992;2023-06-22T07:15:23;11.50;;;9.40;;
3249;SDS011;1637;42.020;23.992;2023-06-22T07:17:51;27.93;;;14.80;;
3249;SDS011;1637;42.020;23.992;2023-06-22T07:20:18;28.27;;;19.10;;
3249;SDS011;1637;42.020;23.992;2023-06-22T07:22:45;11.57;;;8.80;;
3249;SDS011;1637;42.020;23.992;2023-06-22T07:25:12;12.90;;;8.40;;
3249;SDS011;1637;42.020;23.992;2023-06-22T07:27:43;9.27;;;8.37;;
3249;SDS011;1637;42.020;23.992;2023-06-22T07:30:12;21.90;;;8.63;;
3249;SDS011;1637;42.020;23.992;2023-06-22T07:32:40;10.47;;;8.07;;
3249;SDS011;1637;42.020;23.992;2023-06-22T07:35:07;8.97;;;8.10;;
3249;SDS011;1637;42.020;23.992;2023-06-22T07:37:34;9.60;;;7.57;;
3249;SDS011;1637;42.020;23.992;2023-06-22T07:40:01;10.17;;;9.17;;
3249;SDS011;1637;42.020;23.992;2023-06-22T07:42:31;9.10;;;8.20;;
3249;SDS011;1637;42.020;23.992;2023-06-22T07:44:59;7.93;;;7.03;;
3249;SDS011;1637;42.020;23.992;2023-06-22T07:47:28;11.40;;;7.00;;
3249;SDS011;1637;42.020;23.992;2023-06-22T07:49:55;17.60;;;9.63;;
3249;SDS011;1637;42.020;23.992;2023-06-22T07:52:23;11.33;;;7.03;;
3249;SDS011;1637;42.020;23.992;2023-06-22T07:54:50;8.07;;;6.37;;
3249;SDS011;1637;42.020;23.992;2023-06-22T07:57:17;6.20;;;5.60;;
3249;SDS011;1637;42.020;23.992;2023-06-22T07:59:44;6.17;;;5.57;;
3249;SDS011;1637;42.020;23.992;2023-06-22T08:02:11;11.90;;;6.20;;
3249;SDS011;1637;42.020;23.992;2023-06-22T08:04:39;5.63;;;5.10;;
3249;SDS011;1637;42.020;23.992;2023-06-22T08:07:07;10.53;;;6.40;;
3249;SDS011;1637;42.020;23.992;2023-06-22T08:09:34;5.70;;;5.10;;
3249;SDS011;1637;42.020;23.992;2023-06-22T08:12:02;7.97;;;4.30;;
3249;SDS011;1637;42.020;23.992;2023-06-22T08:14:29;4.80;;;4.40;;
3249;SDS011;1637;42.020;23.992;2023-06-22T08:16:56;7.30;;;6.13;;
3249;SDS011;1637;42.020;23.992;2023-06-22T08:19:23;5.57;;;5.07;;
3249;SDS011;1637;42.020;23.992;2023-06-22T08:21:51;13.65;;;5.60;;
3249;SDS011;1637;42.020;23.992;2023-06-22T08:24:18;5.60;;;5.10;;
3249;SDS011;1637;42.020;23.992;2023-06-22T08:26:44;5.60;;;5.10;;
3249;SDS011;1637;42.020;23.992;2023-06-22T08:29:11;6.37;;;5.77;;
3249;SDS011;1637;42.020;23.992;2023-06-22T08:31:38;5.37;;;4.83;;
3249;SDS011;1637;42.020;23.992;2023-06-22T08:34:05;6.07;;;5.57;;
3249;SDS011;1637;42.020;23.992;2023-06-22T08:36:32;9.90;;;5.20;;
3249;SDS011;1637;42.020;23.992;2023-06-22T08:39:07;9.38;;;5.75;;
3249;SDS011;1637;42.020;23.992;2023-06-22T08:41:34;7.15;;;5.10;;
3249;SDS011;1637;42.020;23.992;2023-06-22T08:44:01;5.88;;;4.70;;
3249;SDS011;1637;42.020;23.992;2023-06-22T08:46:29;5.97;;;5.15;;
3249;SDS011;1637;42.020;23.992;2023-06-22T08:48:58;8.10;;;5.38;;
3249;SDS011;1637;42.020;23.992;2023-06-22T08:51:26;7.70;;;5.53;;
3249;SDS011;1637;42.020;23.992;2023-06-22T08:53:53;13.48;;;6.63;;
3249;SDS011;1637;42.020;23.992;2023-06-22T08:56:21;9.00;;;7.20;;
3249;SDS011;1637;42.020;23.992;2023-06-22T08:58:48;6.97;;;6.38;;
3249;SDS011;1637;42.020;23.992;2023-06-22T09:01:15;6.75;;;6.00;;
3249;SDS011;1637;42.020;23.992;2023-06-22T09:03:42;18.80;;;14.43;;
3249;SDS011;1637;42.020;23.992;2023-06-22T09:06:09;5.15;;;4.65;;
3249;SDS011;1637;42.020;23.992;2023-06-22T09:08:35;12.85;;;5.20;;
3249;SDS011;1637;42.020;23.992;2023-06-22T09:11:02;8.30;;;5.38;;
3249;SDS011;1637;42.020;23.992;2023-06-22T09:13:32;29.20;;;14.25;;
3249;SDS011;1637;42.020;23.992;2023-06-22T09:15:59;4.88;;;4.47;;
3249;SDS011;1637;42.020;23.992;2023-06-22T09:18:26;6.75;;;5.10;;
3249;SDS011;1637;42.020;23.992;2023-06-22T09:20:53;8.98;;;6.00;;
3249;SDS011;1637;42.020;23.992;2023-06-22T09:23:20;87.93;;;38.80;;
3249;SDS011;1637;42.020;23.992;2023-06-22T09:25:47;45.95;;;22.73;;
3249;SDS011;1637;42.020;23.992;2023-06-22T09:28:14;53.78;;;23.08;;
3249;SDS011;1637;42.020;23.992;2023-06-22T09:30:42;5.05;;;4.55;;
3249;SDS011;1637;42.020;23.992;2023-06-22T09:33:09;6.13;;;4.72;;
3249;SDS011;1637;42.020;23.992;2023-06-22T09:35:36;5.75;;;5.20;;
3249;SDS011;1637;42.020;23.992;2023-06-22T09:38:03;5.68;;;5.18;;
3249;SDS011;1637;42.020;23.992;2023-06-22T09:40:30;5.38;;;4.88;;
3249;SDS011;1637;42.020;23.992;2023-06-22T09:42:58;5.82;;;5.32;;
3249;SDS011;1637;42.020;23.992;2023-06-22T09:45:24;5.20;;;4.80;;
3249;SDS011;1637;42.020;23.992;2023-06-22T09:47:52;7.28;;;5.82;;
3249;SDS011;1637;42.020;23.992;2023-06-22T09:50:19;6.63;;;5.95;;
3249;SDS011;1637;42.020;23.992;2023-06-22T09:52:46;18.58;;;6.32;;
3249;SDS011;1637;42.020;23.992;2023-06-22T09:55:15;10.98;;;5.60;;
3249;SDS011;1637;42.020;23.992;2023-06-22T09:57:42;7.13;;;5.70;;
3249;SDS011;1637;42.020;23.992;2023-06-22T10:00:10;6.85;;;5.78;;
3249;SDS011;1637;42.020;23.992;2023-06-22T10:02:38;6.03;;;5.20;;
3249;SDS011;1637;42.020;23.992;2023-06-22T10:05:07;11.70;;;5.60;;
3249;SDS011;1637;42.020;23.992;2023-06-22T10:07:34;11.20;;;6.93;;
3249;SDS011;1637;42.020;23.992;2023-06-22T10:10:05;6.50;;;5.82;;
3249;SDS011;1637;42.020;23.992;2023-06-22T10:12:32;5.85;;;5.25;;
3249;SDS011;1637;42.020;23.992;2023-06-22T10:14:59;8.60;;;5.20;;
3249;SDS011;1637;42.020;23.992;2023-06-22T10:17:26;8.60;;;6.03;;
3249;SDS011;1637;42.020;23.992;2023-06-22T10:19:53;6.47;;;5.68;;
3249;SDS011;1637;42.020;23.992;2023-06-22T10:22:21;6.00;;;5.40;;
3249;SDS011;1637;42.020;23.992;2023-06-22T10:24:48;5.93;;;5.43;;
3249;SDS011;1637;42.020;23.992;2023-06-22T10:27:15;5.75;;;5.25;;
3249;SDS011;1637;42.020;23.992;2023-06-22T10:29:42;7.80;;;5.70;;
3249;SDS011;1637;42.020;23.992;2023-06-22T10:32:09;6.85;;;6.25;;
3249;SDS011;1637;42.020;23.992;2023-06-22T10:34:35;8.55;;;5.47;;
3249;SDS011;1637;42.020;23.992;2023-06-22T10:37:02;6.72;;;5.28;;
3249;SDS011;1637;42.020;23.992;2023-06-22T10:39:31;9.18;;;5.20;;
3249;SDS011;1637;42.020;23.992;2023-06-22T10:41:58;6.15;;;5.53;;
3249;SDS011;1637;42.020;23.992;2023-06-22T10:44:24;6.43;;;5.82;;
3249;SDS011;1637;42.020;23.992;2023-06-22T10:46:51;13.10;;;5.65;;
3249;SDS011;1637;42.020;23.992;2023-06-22T10:49:18;6.50;;;5.90;;
3249;SDS011;1637;42.020;23.992;2023-06-22T10:51:45;6.82;;;5.75;;
3249;SDS011;1637;42.020;23.992;2023-06-22T10:54:14;8.60;;;6.07;;
3249;SDS011;1637;42.020;23.992;2023-06-22T10:56:44;5.35;;;4.85;;
3249;SDS011;1637;42.020;23.992;2023-06-22T10:59:11;6.53;;;5.93;;
3249;SDS011;1637;42.020;23.992;2023-06-22T11:01:38;8.48;;;5.70;;
3249;SDS011;1637;42.020;23.992;2023-06-22T11:04:05;7.18;;;6.57;;
3249;SDS011;1637;42.020;23.992;2023-06-22T11:06:32;5.63;;;5.13;;
3249;SDS011;1637;42.020;23.992;2023-06-22T11:08:58;5.80;;;5.30;;
3249;SDS011;1637;42.020;23.992;2023-06-22T11:11:25;7.22;;;5.88;;
3249;SDS011;1637;42.020;23.992;2023-06-22T11:13:53;7.45;;;6.18;;
3249;SDS011;1637;42.020;23.992;2023-06-22T11:16:20;7.93;;;6.13;;
3249;SDS011;1637;42.020;23.992;2023-06-22T11:18:47;7.07;;;5.97;;
3249;SDS011;1637;42.020;23.992;2023-06-22T11:21:14;8.63;;;6.25;;
3249;SDS011;1637;42.020;23.992;2023-06-22T11:23:41;7.43;;;5.75;;
3249;SDS011;1637;42.020;23.992;2023-06-22T11:26:08;9.50;;;7.10;;
3249;SDS011;1637;42.020;23.992;2023-06-22T11:28:35;28.13;;;8.35;;
3249;SDS011;1637;42.020;23.992;2023-06-22T11:31:03;15.35;;;6.20;;
3249;SDS011;1637;42.020;23.992;2023-06-22T11:33:32;5.43;;;4.93;;
3249;SDS011;1637;42.020;23.992;2023-06-22T11:35:59;7.53;;;5.28;;
3249;SDS011;1637;42.020;23.992;2023-06-22T11:38:26;7.90;;;5.47;;
3249;SDS011;1637;42.020;23.992;2023-06-22T11:40:52;7.13;;;6.43;;
3249;SDS011;1637;42.020;23.992;2023-06-22T11:43:19;9.88;;;6.78;;
3249;SDS011;1637;42.020;23.992;2023-06-22T11:45:46;9.48;;;7.07;;
3249;SDS011;1637;42.020;23.992;2023-06-22T11:48:14;6.90;;;6.20;;
3249;SDS011;1637;42.020;23.992;2023-06-22T11:50:41;8.93;;;7.45;;
3249;SDS011;1637;42.020;23.992;2023-06-22T11:53:08;6.60;;;6.00;;
3249;SDS011;1637;42.020;23.992;2023-06-22T11:55:35;7.47;;;6.05;;
3249;SDS011;1637;42.020;23.992;2023-06-22T11:58:02;8.90;;;8.00;;
3249;SDS011;1637;42.020;23.992;2023-06-22T12:00:30;8.25;;;5.90;;
3249;SDS011;1637;42.020;23.992;2023-06-22T12:02:57;7.15;;;5.47;;
3249;SDS011;1637;42.020;23.992;2023-06-22T12:05:25;12.32;;;5.47;;
3249;SDS011;1637;42.020;23.992;2023-06-22T12:07:52;6.93;;;5.95;;
3249;SDS011;1637;42.020;23.992;2023-06-22T12:10:19;8.52;;;5.93;;
3249;SDS011;1637;42.020;23.992;2023-06-22T12:12:46;5.97;;;5.40;;
3249;SDS011;1637;42.020;23.992;2023-06-22T12:15:13;7.93;;;6.38;;
3249;SDS011;1637;42.020;23.992;2023-06-22T12:17:40;8.25;;;7.45;;
3249;SDS011;1637;42.020;23.992;2023-06-22T12:20:07;7.25;;;6.15;;
3249;SDS011;1637;42.020;23.992;2023-06-22T12:22:36;8.07;;;6.60;;
3249;SDS011;1637;42.020;23.992;2023-06-22T12:25:04;12.05;;;7.75;;
3249;SDS011;1637;42.020;23.992;2023-06-22T12:27:31;6.68;;;6.03;;
3249;SDS011;1637;42.020;23.992;2023-06-22T12:29:58;7.43;;;5.40;;
3249;SDS011;1637;42.020;23.992;2023-06-22T12:32:25;8.20;;;7.30;;
3249;SDS011;1637;42.020;23.992;2023-06-22T12:34:52;7.30;;;5.60;;
3249;SDS011;1637;42.020;23.992;2023-06-22T12:37:19;7.68;;;6.07;;
3249;SDS011;1637;42.020;23.992;2023-06-22T12:39:47;9.63;;;5.75;;
3249;SDS011;1637;42.020;23.992;2023-06-22T12:42:14;7.47;;;6.38;;
3249;SDS011;1637;42.020;23.992;2023-06-22T12:44:41;12.88;;;6.78;;
3249;SDS011;1637;42.020;23.992;2023-06-22T12:47:09;6.35;;;5.85;;
3249;SDS011;1637;42.020;23.992;2023-06-22T12:49:36;7.88;;;7.22;;
3249;SDS011;1637;42.020;23.992;2023-06-22T12:52:08;6.95;;;6.30;;
3249;SDS011;1637;42.020;23.992;2023-06-22T12:54:35;12.18;;;6.57;;
3249;SDS011;1637;42.020;23.992;2023-06-22T12:57:04;7.10;;;5.38;;
3249;SDS011;1637;42.020;23.992;2023-06-22T12:59:31;8.55;;;6.15;;
3249;SDS011;1637;42.020;23.992;2023-06-22T13:01:58;6.13;;;5.40;;
3249;SDS011;1637;42.020;23.992;2023-06-22T13:04:27;8.15;;;7.05;;
3249;SDS011;1637;42.020;23.992;2023-06-22T13:06:54;8.32;;;7.43;;
3249;SDS011;1637;42.020;23.992;2023-06-22T13:09:21;7.95;;;6.07;;
3249;SDS011;1637;42.020;23.992;2023-06-22T13:11:48;6.20;;;5.60;;
3249;SDS011;1637;42.020;23.992;2023-06-22T13:14:16;6.38;;;5.28;;
3249;SDS011;1637;42.020;23.992;2023-06-22T13:16:43;9.85;;;7.78;;
3249;SDS011;1637;42.020;23.992;2023-06-22T13:19:09;7.72;;;6.93;;
3249;SDS011;1637;42.020;23.992;2023-06-22T13:21:36;9.00;;;6.60;;
3249;SDS011;1637;42.020;23.992;2023-06-22T13:24:03;9.88;;;6.80;;
3249;SDS011;1637;42.020;23.992;2023-06-22T13:26:32;12.43;;;7.32;;
3249;SDS011;1637;42.020;23.992;2023-06-22T13:28:59;9.93;;;6.97;;
3249;SDS011;1637;42.020;23.992;2023-06-22T13:31:27;15.95;;;6.90;;
3249;SDS011;1637;42.020;23.992;2023-06-22T13:33:54;7.22;;;6.53;;
3249;SDS011;1637;42.020;23.992;2023-06-22T13:36:21;7.05;;;5.97;;
3249;SDS011;1637;42.020;23.992;2023-06-22T13:38:49;10.00;;;6.03;;
3249;SDS011;1637;42.020;23.992;2023-06-22T13:41:17;8.52;;;6.45;;
3249;SDS011;1637;42.020;23.992;2023-06-22T13:43:44;8.10;;;6.63;;
3249;SDS011;1637;42.020;23.992;2023-06-22T13:46:11;15.73;;;7.13;;
3249;SDS011;1637;42.020;23.992;2023-06-22T13:48:39;7.50;;;6.80;;
3249;SDS011;1637;42.020;23.992;2023-06-22T13:51:06;8.03;;;7.13;;
3249;SDS011;1637;42.020;23.992;2023-06-22T13:53:33;8.50;;;7.73;;
3249;SDS011;1637;42.020;23.992;2023-06-22T13:56:00;9.67;;;7.37;;
3249;SDS011;1637;42.020;23.992;2023-06-22T13:58:27;7.67;;;6.80;;
3249;SDS011;1637;42.020;23.992;2023-06-22T14:00:53;10.80;;;7.60;;
3249;SDS011;1637;42.020;23.992;2023-06-22T14:03:20;8.23;;;6.80;;
3249;SDS011;1637;42.020;23.992;2023-06-22T14:05:48;10.03;;;7.80;;
3249;SDS011;1637;42.020;23.992;2023-06-22T14:08:15;10.90;;;7.73;;
3249;SDS011;1637;42.020;23.992;2023-06-22T14:10:42;8.37;;;7.47;;
3249;SDS011;1637;42.020;23.992;2023-06-22T14:13:09;11.93;;;7.83;;
3249;SDS011;1637;42.020;23.992;2023-06-22T14:15:36;8.47;;;6.73;;
3249;SDS011;1637;42.020;23.992;2023-06-22T14:18:03;12.40;;;7.73;;
3249;SDS011;1637;42.020;23.992;2023-06-22T14:20:32;8.47;;;7.13;;
3249;SDS011;1637;42.020;23.992;2023-06-22T14:23:00;11.90;;;6.40;;
3249;SDS011;1637;42.020;23.992;2023-06-22T14:25:27;7.90;;;7.10;;
3249;SDS011;1637;42.020;23.992;2023-06-22T14:27:54;19.23;;;6.37;;
3249;SDS011;1637;42.020;23.992;2023-06-22T14:30:21;7.00;;;6.40;;
3249;SDS011;1637;42.020;23.992;2023-06-22T14:32:48;16.17;;;7.63;;
3249;SDS011;1637;42.020;23.992;2023-06-22T14:35:15;8.10;;;7.27;;
3249;SDS011;1637;42.020;23.992;2023-06-22T14:37:42;7.87;;;7.10;;
3249;SDS011;1637;42.020;23.992;2023-06-22T14:40:10;12.77;;;7.83;;
3249;SDS011;1637;42.020;23.992;2023-06-22T14:42:38;15.70;;;8.30;;
3249;SDS011;1637;42.020;23.992;2023-06-22T14:45:05;8.80;;;6.20;;
3249;SDS011;1637;42.020;23.992;2023-06-22T14:47:33;7.70;;;6.27;;
3249;SDS011;1637;42.020;23.992;2023-06-22T14:50:02;7.17;;;6.53;;